map of CZM home
CZM - Airport
Location
City:  Cozumel, Quintana Roo, México
Name:Cozumel International Airport
ICAO:MMCZ
IATA:CZM

Details
Type:Airport (Aerodrome, Airfield)
Use:Public/Civil, Military, International (customs port of entry)
Latitude:20°31'21"N (20.522403)
Longitude:86°55'32"W (-86.925643)
Datum:WGS 1984
Elevation:15 ft (5 m)
Variation:1.90°W (WMM2015 magnetic declination)
-0.13° annual change
Runways:2
Longest:10165 × 148 ft (3098 × 45 m), paved

Time
Time Zone:UTC-5
Local Time:

Weather
METAR:MMCZ 210046Z 08003KT 7SM SCT015 BKN250 27/24 A3001 RMK 8/408 CB NW
TAF:MMCZ 201136Z 2012/2118 06005KT 6SM HZ SCT015
FM201800 12010KT 6SM HZ SCT020
FM210300 12005KT 6SM HZ SKC
FM211800 13010KT 6SM HZ SCT020

Related Locations
Nearby:
Farthest:CCK: 11808 mi / 19003 km
West Island (Pulau Panjang) [Cocos (Keeling) Islands], CC

Find:

   beyond  
but within

Other Information
Maps:
NOTAMs:
Links:
Sources:

  
  • flag of México
  • flag of Quintana Roo
  

Sectional Chart

Flight Planning
at skyvector.com

Satellite Image

Google Maps Satellite view

 

Copyright © 2004-2018 Karl L. Swartz. All rights reserved.
The Great Circle Mapper name and logo are trademarks of the Great Circle Mapper.
All other trademarks mentioned herein belong to their respective owners.
Please see credits for attibutions and further copyright information.

  Follow gcmap on Facebook Follow gcmap on Twitter Follow gcmap on Google+ GCmap on LinkedIn

hCard Microformat

Geo Microformat